sensor_id;sensor_type;location;lat;lon;timestamp;pressure;altitude;pressure_sealevel;temperature;humidity
35918;BME280;22011;59.912;30.300;2023-01-25T00:02:06;102581.38;;;2.13;80.43
35918;BME280;22011;59.912;30.300;2023-01-25T00:04:33;102576.97;;;2.13;80.27
35918;BME280;22011;59.912;30.300;2023-01-25T00:07:01;102571.84;;;2.10;80.31
35918;BME280;22011;59.912;30.300;2023-01-25T00:09:28;102561.19;;;2.13;80.51
35918;BME280;22011;59.912;30.300;2023-01-25T00:11:55;102564.81;;;2.11;80.38
35918;BME280;22011;59.912;30.300;2023-01-25T00:14:24;102567.59;;;2.08;80.24
35918;BME280;22011;59.912;30.300;2023-01-25T00:16:52;102567.38;;;2.12;80.40
35918;BME280;22011;59.912;30.300;2023-01-25T00:19:20;102549.03;;;2.11;80.38
35918;BME280;22011;59.912;30.300;2023-01-25T00:21:49;102546.47;;;2.09;80.24
35918;BME280;22011;59.912;30.300;2023-01-25T00:24:16;102549.97;;;2.10;80.63
35918;BME280;22011;59.912;30.300;2023-01-25T00:26:44;102540.34;;;2.09;80.56
35918;BME280;22011;59.912;30.300;2023-01-25T00:29:12;102535.03;;;2.10;80.41
35918;BME280;22011;59.912;30.300;2023-01-25T00:31:45;102525.16;;;2.15;80.75
35918;BME280;22011;59.912;30.300;2023-01-25T00:34:43;102515.03;;;2.26;81.13
35918;BME280;22011;59.912;30.300;2023-01-25T00:37:19;102509.19;;;2.20;80.82
35918;BME280;22011;59.912;30.300;2023-01-25T00:39:49;102511.31;;;2.12;80.63
35918;BME280;22011;59.912;30.300;2023-01-25T00:42:18;102504.19;;;2.14;79.90
35918;BME280;22011;59.912;30.300;2023-01-25T00:44:46;102512.81;;;2.17;79.23
35918;BME280;22011;59.912;30.300;2023-01-25T00:47:15;102515.31;;;2.20;78.90
35918;BME280;22011;59.912;30.300;2023-01-25T00:49:44;102525.63;;;2.25;78.25
35918;BME280;22011;59.912;30.300;2023-01-25T00:52:13;102520.44;;;2.23;77.90
35918;BME280;22011;59.912;30.300;2023-01-25T00:54:41;102522.25;;;2.21;77.85
35918;BME280;22011;59.912;30.300;2023-01-25T00:57:09;102534.50;;;2.22;77.58
35918;BME280;22011;59.912;30.300;2023-01-25T00:59:37;102522.25;;;2.21;77.51
35918;BME280;22011;59.912;30.300;2023-01-25T01:02:09;102517.78;;;2.23;77.67
35918;BME280;22011;59.912;30.300;2023-01-25T01:04:37;102508.78;;;2.29;77.23
35918;BME280;22011;59.912;30.300;2023-01-25T01:07:06;102502.59;;;2.30;77.42
35918;BME280;22011;59.912;30.300;2023-01-25T01:09:34;102504.44;;;2.28;77.34
35918;BME280;22011;59.912;30.300;2023-01-25T01:12:01;102490.44;;;2.27;76.97
35918;BME280;22011;59.912;30.300;2023-01-25T01:14:30;102492.22;;;2.27;77.29
35918;BME280;22011;59.912;30.300;2023-01-25T01:16:58;102482.63;;;2.26;77.03
35918;BME280;22011;59.912;30.300;2023-01-25T01:19:25;102489.72;;;2.24;76.88
35918;BME280;22011;59.912;30.300;2023-01-25T01:21:53;102479.97;;;2.26;77.06
35918;BME280;22011;59.912;30.300;2023-01-25T01:24:23;102485.25;;;2.26;77.43
35918;BME280;22011;59.912;30.300;2023-01-25T01:26:50;102478.13;;;2.28;76.90
35918;BME280;22011;59.912;30.300;2023-01-25T01:29:18;102486.75;;;2.32;76.85
35918;BME280;22011;59.912;30.300;2023-01-25T01:31:45;102492.06;;;2.30;77.23
35918;BME280;22011;59.912;30.300;2023-01-25T01:34:21;102485.16;;;2.27;77.29
35918;BME280;22011;59.912;30.300;2023-01-25T01:36:48;102480.19;;;2.21;77.71
35918;BME280;22011;59.912;30.300;2023-01-25T01:39:16;102472.50;;;2.17;78.26
35918;BME280;22011;59.912;30.300;2023-01-25T01:41:45;102470.81;;;2.16;78.54
35918;BME280;22011;59.912;30.300;2023-01-25T01:44:15;102462.97;;;2.14;78.74
35918;BME280;22011;59.912;30.300;2023-01-25T01:46:50;102463.75;;;2.16;78.64
35918;BME280;22011;59.912;30.300;2023-01-25T01:49:25;102449.75;;;2.16;78.54
35918;BME280;22011;59.912;30.300;2023-01-25T01:52:01;102448.91;;;2.15;78.51
35918;BME280;22011;59.912;30.300;2023-01-25T01:54:37;102450.69;;;2.15;78.41
35918;BME280;22011;59.912;30.300;2023-01-25T01:57:12;102431.56;;;2.11;78.69
35918;BME280;22011;59.912;30.300;2023-01-25T01:59:43;102420.38;;;2.08;78.56
35918;BME280;22011;59.912;30.300;2023-01-25T02:02:14;102416.38;;;1.99;78.26
35918;BME280;22011;59.912;30.300;2023-01-25T02:04:45;102404.03;;;2.01;77.88
35918;BME280;22011;59.912;30.300;2023-01-25T02:07:14;102376.56;;;2.25;78.67
35918;BME280;22011;59.912;30.300;2023-01-25T02:09:47;102379.84;;;2.12;77.58
35918;BME280;22011;59.912;30.300;2023-01-25T02:12:17;102378.06;;;2.12;77.10
35918;BME280;22011;59.912;30.300;2023-01-25T02:14:46;102371.00;;;2.32;78.12
35918;BME280;22011;59.912;30.300;2023-01-25T02:17:18;102372.34;;;2.04;76.70
35918;BME280;22011;59.912;30.300;2023-01-25T02:19:54;102348.53;;;2.07;76.70
35918;BME280;22011;59.912;30.300;2023-01-25T02:22:32;102352.69;;;2.11;76.72
35918;BME280;22011;59.912;30.300;2023-01-25T02:25:05;102357.94;;;2.11;76.71
35918;BME280;22011;59.912;30.300;2023-01-25T02:27:36;102356.88;;;2.15;76.52
35918;BME280;22011;59.912;30.300;2023-01-25T02:30:06;102356.72;;;2.18;75.67
35918;BME280;22011;59.912;30.300;2023-01-25T02:32:34;102355.59;;;2.24;75.23
35918;BME280;22011;59.912;30.300;2023-01-25T02:35:03;102358.22;;;2.24;74.99
35918;BME280;22011;59.912;30.300;2023-01-25T02:37:31;102353.97;;;2.21;75.13
35918;BME280;22011;59.912;30.300;2023-01-25T02:39:59;102365.25;;;2.23;74.99
35918;BME280;22011;59.912;30.300;2023-01-25T02:42:30;102356.94;;;2.33;74.87
35918;BME280;22011;59.912;30.300;2023-01-25T02:45:06;102352.44;;;2.35;74.73
35918;BME280;22011;59.912;30.300;2023-01-25T02:47:35;102349.19;;;2.29;74.87
35918;BME280;22011;59.912;30.300;2023-01-25T02:50:04;102344.84;;;2.28;74.63
35918;BME280;22011;59.912;30.300;2023-01-25T02:52:32;102351.19;;;2.24;75.36
35918;BME280;22011;59.912;30.300;2023-01-25T02:54:59;102349.34;;;2.26;75.17
35918;BME280;22011;59.912;30.300;2023-01-25T02:57:27;102339.66;;;2.27;75.18
35918;BME280;22011;59.912;30.300;2023-01-25T02:59:57;102354.38;;;2.31;75.36
35918;BME280;22011;59.912;30.300;2023-01-25T03:02:25;102356.16;;;2.30;74.73
35918;BME280;22011;59.912;30.300;2023-01-25T03:04:53;102352.75;;;2.28;74.74
35918;BME280;22011;59.912;30.300;2023-01-25T03:07:22;102352.59;;;2.32;74.71
35918;BME280;22011;59.912;30.300;2023-01-25T03:09:49;102340.31;;;2.32;74.58
35918;BME280;22011;59.912;30.300;2023-01-25T03:12:18;102340.44;;;2.29;75.01
35918;BME280;22011;59.912;30.300;2023-01-25T03:14:46;102338.66;;;2.29;75.21
35918;BME280;22011;59.912;30.300;2023-01-25T03:17:14;102331.56;;;2.32;75.16
35918;BME280;22011;59.912;30.300;2023-01-25T03:19:42;102329.94;;;2.29;75.21
35918;BME280;22011;59.912;30.300;2023-01-25T03:22:09;102331.69;;;2.28;74.87
35918;BME280;22011;59.912;30.300;2023-01-25T03:24:37;102338.75;;;2.28;74.79
35918;BME280;22011;59.912;30.300;2023-01-25T03:27:06;102341.44;;;2.26;75.16
35918;BME280;22011;59.912;30.300;2023-01-25T03:29:56;102325.66;;;2.26;75.16
35918;BME280;22011;59.912;30.300;2023-01-25T03:32:28;102334.47;;;2.25;74.96
35918;BME280;22011;59.912;30.300;2023-01-25T03:34:56;102336.34;;;2.23;75.20
35918;BME280;22011;59.912;30.300;2023-01-25T03:37:25;102342.50;;;2.22;75.10
35918;BME280;22011;59.912;30.300;2023-01-25T03:39:56;102337.19;;;2.24;75.43
35918;BME280;22011;59.912;30.300;2023-01-25T03:42:25;102325.03;;;2.21;75.24
35918;BME280;22011;59.912;30.300;2023-01-25T03:44:57;102329.50;;;2.19;75.63
35918;BME280;22011;59.912;30.300;2023-01-25T03:47:25;102326.25;;;2.14;75.84
35918;BME280;22011;59.912;30.300;2023-01-25T03:49:54;102323.53;;;2.16;76.37
35918;BME280;22011;59.912;30.300;2023-01-25T03:52:39;102311.75;;;2.24;77.48
35918;BME280;22011;59.912;30.300;2023-01-25T03:55:24;102300.56;;;2.02;76.94
35918;BME280;22011;59.912;30.300;2023-01-25T03:57:51;102286.78;;;1.97;77.37
35918;BME280;22011;59.912;30.300;2023-01-25T04:00:20;102269.31;;;1.96;77.50
35918;BME280;22011;59.912;30.300;2023-01-25T04:02:55;102259.09;;;1.90;77.21
35918;BME280;22011;59.912;30.300;2023-01-25T04:05:25;102247.59;;;1.92;77.89
35918;BME280;22011;59.912;30.300;2023-01-25T04:07:53;102232.97;;;1.87;77.83
35918;BME280;22011;59.912;30.300;2023-01-25T04:10:28;102231.25;;;1.86;77.89
35918;BME280;22011;59.912;30.300;2023-01-25T04:12:56;102235.50;;;1.88;78.13
35918;BME280;22011;59.912;30.300;2023-01-25T04:15:24;102236.59;;;1.84;77.77
35918;BME280;22011;59.912;30.300;2023-01-25T04:17:51;102210.44;;;1.81;77.76
35918;BME280;22011;59.912;30.300;2023-01-25T04:20:22;102217.34;;;1.84;77.98
35918;BME280;22011;59.912;30.300;2023-01-25T04:22:51;102208.59;;;1.83;78.02
35918;BME280;22011;59.912;30.300;2023-01-25T04:25:23;102206.97;;;1.81;78.02
35918;BME280;22011;59.912;30.300;2023-01-25T04:27:53;102203.28;;;1.85;77.82
35918;BME280;22011;59.912;30.300;2023-01-25T04:30:20;102206.81;;;1.84;77.76
35918;BME280;22011;59.912;30.300;2023-01-25T04:32:49;102204.19;;;1.84;77.54
35918;BME280;22011;59.912;30.300;2023-01-25T04:35:24;102200.63;;;1.85;77.41
35918;BME280;22011;59.912;30.300;2023-01-25T04:37:54;102208.22;;;1.91;77.51
35918;BME280;22011;59.912;30.300;2023-01-25T04:40:25;102204.97;;;1.86;77.17
35918;BME280;22011;59.912;30.300;2023-01-25T04:42:53;102205.13;;;1.83;76.95
35918;BME280;22011;59.912;30.300;2023-01-25T04:45:20;102207.53;;;1.87;76.91
35918;BME280;22011;59.912;30.300;2023-01-25T04:47:48;102196.78;;;1.92;76.60
35918;BME280;22011;59.912;30.300;2023-01-25T04:50:16;102190.47;;;1.96;76.13
35918;BME280;22011;59.912;30.300;2023-01-25T04:52:44;102184.06;;;2.02;75.79
35918;BME280;22011;59.912;30.300;2023-01-25T04:55:13;102165.50;;;2.05;75.21
35918;BME280;22011;59.912;30.300;2023-01-25T04:57:43;102161.31;;;2.01;75.26
35918;BME280;22011;59.912;30.300;2023-01-25T05:00:11;102160.91;;;1.91;75.23
35918;BME280;22011;59.912;30.300;2023-01-25T05:02:39;102152.09;;;1.92;75.69
35918;BME280;22011;59.912;30.300;2023-01-25T05:05:08;102158.84;;;1.98;75.29
35918;BME280;22011;59.912;30.300;2023-01-25T05:07:35;102142.22;;;1.97;75.25
35918;BME280;22011;59.912;30.300;2023-01-25T05:10:04;102136.19;;;1.95;75.31
35918;BME280;22011;59.912;30.300;2023-01-25T05:12:34;102129.00;;;1.99;75.23
35918;BME280;22011;59.912;30.300;2023-01-25T05:15:06;102138.81;;;1.95;74.50
35918;BME280;22011;59.912;30.300;2023-01-25T05:17:34;102144.84;;;1.97;74.81
35918;BME280;22011;59.912;30.300;2023-01-25T05:20:02;102142.84;;;2.02;74.78
35918;BME280;22011;59.912;30.300;2023-01-25T05:22:30;102137.44;;;2.05;74.53
35918;BME280;22011;59.912;30.300;2023-01-25T05:24:57;102141.75;;;2.06;74.74
35918;BME280;22011;59.912;30.300;2023-01-25T05:27:26;102138.09;;;2.09;74.29
35918;BME280;22011;59.912;30.300;2023-01-25T05:29:55;102130.66;;;2.17;73.88
35918;BME280;22011;59.912;30.300;2023-01-25T05:32:30;102125.50;;;2.15;73.89
35918;BME280;22011;59.912;30.300;2023-01-25T05:34:58;102120.31;;;2.14;74.23
35918;BME280;22011;59.912;30.300;2023-01-25T05:37:26;102123.09;;;2.11;73.94
35918;BME280;22011;59.912;30.300;2023-01-25T05:39:59;102116.91;;;2.12;74.50
35918;BME280;22011;59.912;30.300;2023-01-25T05:42:28;102127.28;;;2.15;74.55
35918;BME280;22011;59.912;30.300;2023-01-25T05:44:57;102128.75;;;2.20;73.93
35918;BME280;22011;59.912;30.300;2023-01-25T05:47:25;102119.84;;;2.23;73.90
35918;BME280;22011;59.912;30.300;2023-01-25T05:49:54;102121.53;;;2.24;74.00
35918;BME280;22011;59.912;30.300;2023-01-25T05:52:34;102124.16;;;2.24;74.14
35918;BME280;22011;59.912;30.300;2023-01-25T05:55:02;102127.81;;;2.21;74.59
35918;BME280;22011;59.912;30.300;2023-01-25T05:57:29;102122.72;;;2.18;73.95
35918;BME280;22011;59.912;30.300;2023-01-25T06:00:01;102107.47;;;2.25;74.39
35918;BME280;22011;59.912;30.300;2023-01-25T06:02:39;102103.91;;;2.26;74.38
35918;BME280;22011;59.912;30.300;2023-01-25T06:05:09;102104.06;;;2.23;74.39
35918;BME280;22011;59.912;30.300;2023-01-25T06:07:37;102097.94;;;2.22;75.06
35918;BME280;22011;59.912;30.300;2023-01-25T06:10:06;102097.88;;;2.24;75.07
35918;BME280;22011;59.912;30.300;2023-01-25T06:12:34;102091.59;;;2.26;74.73
35918;BME280;22011;59.912;30.300;2023-01-25T06:15:04;102091.44;;;2.29;75.20
35918;BME280;22011;59.912;30.300;2023-01-25T06:17:32;102098.72;;;2.24;74.67
35918;BME280;22011;59.912;30.300;2023-01-25T06:20:10;102088.53;;;2.18;74.25
35918;BME280;22011;59.912;30.300;2023-01-25T06:22:48;102072.34;;;2.26;74.98
35918;BME280;22011;59.912;30.300;2023-01-25T06:25:16;102067.16;;;2.24;74.95
35918;BME280;22011;59.912;30.300;2023-01-25T06:27:43;102073.28;;;2.25;74.89
35918;BME280;22011;59.912;30.300;2023-01-25T06:30:12;102075.75;;;2.28;74.98
35918;BME280;22011;59.912;30.300;2023-01-25T06:32:40;102084.81;;;2.22;74.94
35918;BME280;22011;59.912;30.300;2023-01-25T06:35:08;102077.94;;;2.20;75.54
35918;BME280;22011;59.912;30.300;2023-01-25T06:37:35;102066.41;;;2.22;75.28
35918;BME280;22011;59.912;30.300;2023-01-25T06:40:04;102051.47;;;2.23;75.53
35918;BME280;22011;59.912;30.300;2023-01-25T06:42:31;102062.84;;;2.23;75.86
35918;BME280;22011;59.912;30.300;2023-01-25T06:44:59;102064.53;;;2.24;75.84
35918;BME280;22011;59.912;30.300;2023-01-25T06:47:28;102053.88;;;2.27;76.05
35918;BME280;22011;59.912;30.300;2023-01-25T06:49:55;102045.38;;;2.22;76.29
35918;BME280;22011;59.912;30.300;2023-01-25T06:52:23;102046.38;;;2.20;76.76
35918;BME280;22011;59.912;30.300;2023-01-25T06:54:50;102041.28;;;2.17;76.88
35918;BME280;22011;59.912;30.300;2023-01-25T06:57:17;102025.41;;;2.18;77.38
35918;BME280;22011;59.912;30.300;2023-01-25T06:59:45;102017.59;;;2.17;77.28
35918;BME280;22011;59.912;30.300;2023-01-25T07:02:13;102005.31;;;2.17;77.21
35918;BME280;22011;59.912;30.300;2023-01-25T07:04:43;102001.59;;;2.21;77.19
35918;BME280;22011;59.912;30.300;2023-01-25T07:07:10;102005.31;;;2.17;76.41
35918;BME280;22011;59.912;30.300;2023-01-25T07:09:38;102009.72;;;2.17;76.46
35918;BME280;22011;59.912;30.300;2023-01-25T07:12:06;102004.31;;;2.20;76.55
35918;BME280;22011;59.912;30.300;2023-01-25T07:14:33;101997.44;;;2.17;76.37
35918;BME280;22011;59.912;30.300;2023-01-25T07:17:01;101990.13;;;2.22;75.83
35918;BME280;22011;59.912;30.300;2023-01-25T07:19:28;101981.16;;;2.26;75.73
35918;BME280;22011;59.912;30.300;2023-01-25T07:21:57;101984.16;;;2.36;75.36
35918;BME280;22011;59.912;30.300;2023-01-25T07:24:25;101975.50;;;2.34;74.95
35918;BME280;22011;59.912;30.300;2023-01-25T07:26:54;101973.09;;;2.29;74.84
35918;BME280;22011;59.912;30.300;2023-01-25T07:29:22;101968.63;;;2.32;75.26
35918;BME280;22011;59.912;30.300;2023-01-25T07:31:49;101939.75;;;2.30;75.23
35918;BME280;22011;59.912;30.300;2023-01-25T07:34:17;101938.91;;;2.29;75.11
35918;BME280;22011;59.912;30.300;2023-01-25T07:36:45;101934.25;;;2.35;75.05
35918;BME280;22011;59.912;30.300;2023-01-25T07:39:14;101934.00;;;2.39;74.91
35918;BME280;22011;59.912;30.300;2023-01-25T07:41:42;101925.25;;;2.39;74.35
35918;BME280;22011;59.912;30.300;2023-01-25T07:44:13;101934.09;;;2.38;74.45
35918;BME280;22011;59.912;30.300;2023-01-25T07:46:45;101935.78;;;2.39;75.26
35918;BME280;22011;59.912;30.300;2023-01-25T07:49:13;101932.22;;;2.40;74.98
35918;BME280;22011;59.912;30.300;2023-01-25T07:51:40;101937.47;;;2.40;75.15
35918;BME280;22011;59.912;30.300;2023-01-25T07:54:09;101936.31;;;2.45;75.19
35918;BME280;22011;59.912;30.300;2023-01-25T07:56:38;101930.03;;;2.48;74.96
35918;BME280;22011;59.912;30.300;2023-01-25T07:59:06;101923.56;;;2.38;74.81
35918;BME280;22011;59.912;30.300;2023-01-25T08:01:34;101907.97;;;2.35;75.34
35918;BME280;22011;59.912;30.300;2023-01-25T08:04:03;101915.50;;;2.41;75.38
35918;BME280;22011;59.912;30.300;2023-01-25T08:06:32;101911.94;;;2.42;75.60
35918;BME280;22011;59.912;30.300;2023-01-25T08:09:02;101905.41;;;2.49;75.69
35918;BME280;22011;59.912;30.300;2023-01-25T08:11:31;101903.88;;;2.45;75.83
35918;BME280;22011;59.912;30.300;2023-01-25T08:14:00;101917.28;;;2.56;75.58
35918;BME280;22011;59.912;30.300;2023-01-25T08:16:29;101900.50;;;2.58;75.74
35918;BME280;22011;59.912;30.300;2023-01-25T08:18:58;101902.34;;;2.56;75.39
35918;BME280;22011;59.912;30.300;2023-01-25T08:21:26;101898.38;;;2.49;75.51
35918;BME280;22011;59.912;30.300;2023-01-25T08:23:56;101886.75;;;2.53;75.74
35918;BME280;22011;59.912;30.300;2023-01-25T08:26:24;101875.53;;;2.50;75.55
35918;BME280;22011;59.912;30.300;2023-01-25T08:28:52;101872.91;;;2.50;76.35
35918;BME280;22011;59.912;30.300;2023-01-25T08:31:23;101873.69;;;2.52;76.35
35918;BME280;22011;59.912;30.300;2023-01-25T08:33:51;101870.09;;;2.53;76.16
35918;BME280;22011;59.912;30.300;2023-01-25T08:36:20;101856.28;;;2.49;76.23
35918;BME280;22011;59.912;30.300;2023-01-25T08:38:53;101866.47;;;2.55;76.49
35918;BME280;22011;59.912;30.300;2023-01-25T08:41:22;101862.22;;;2.53;76.50
35918;BME280;22011;59.912;30.300;2023-01-25T08:43:51;101853.81;;;2.62;76.07
35918;BME280;22011;59.912;30.300;2023-01-25T08:46:21;101858.53;;;2.71;75.93
35918;BME280;22011;59.912;30.300;2023-01-25T08:48:52;101856.50;;;2.76;75.91
35918;BME280;22011;59.912;30.300;2023-01-25T08:51:20;101852.69;;;2.66;76.02
35918;BME280;22011;59.912;30.300;2023-01-25T08:53:48;101845.66;;;2.67;75.88
35918;BME280;22011;59.912;30.300;2023-01-25T08:56:16;101830.13;;;2.62;75.69
35918;BME280;22011;59.912;30.300;2023-01-25T08:58:46;101825.97;;;2.58;76.05
35918;BME280;22011;59.912;30.300;2023-01-25T09:01:15;101839.22;;;2.56;76.50
35918;BME280;22011;59.912;30.300;2023-01-25T09:03:45;101843.88;;;2.67;76.65
35918;BME280;22011;59.912;30.300;2023-01-25T09:06:13;101838.97;;;2.91;77.45
35918;BME280;22011;59.912;30.300;2023-01-25T09:08:41;101834.00;;;2.71;75.96
35918;BME280;22011;59.912;30.300;2023-01-25T09:11:11;101834.78;;;2.73;75.90
35918;BME280;22011;59.912;30.300;2023-01-25T09:13:40;101811.63;;;2.63;76.02
35918;BME280;22011;59.912;30.300;2023-01-25T09:16:10;101802.88;;;2.63;76.22
35918;BME280;22011;59.912;30.300;2023-01-25T09:18:39;101790.22;;;2.70;76.24
35918;BME280;22011;59.912;30.300;2023-01-25T09:21:11;101783.66;;;2.77;76.47
35918;BME280;22011;59.912;30.300;2023-01-25T09:23:39;101781.38;;;2.71;76.06
35918;BME280;22011;59.912;30.300;2023-01-25T09:26:10;101776.88;;;2.73;76.43
35918;BME280;22011;59.912;30.300;2023-01-25T09:28:40;101793.50;;;2.73;76.49
35918;BME280;22011;59.912;30.300;2023-01-25T09:31:09;101779.41;;;2.74;76.38
35918;BME280;22011;59.912;30.300;2023-01-25T09:33:56;101777.72;;;2.73;76.42
35918;BME280;22011;59.912;30.300;2023-01-25T09:36:25;101773.63;;;2.83;76.18
35918;BME280;22011;59.912;30.300;2023-01-25T09:38:54;101757.63;;;2.86;76.24
35918;BME280;22011;59.912;30.300;2023-01-25T09:41:34;101755.41;;;2.94;76.79
35918;BME280;22011;59.912;30.300;2023-01-25T09:44:15;101747.78;;;2.90;77.04
35918;BME280;22011;59.912;30.300;2023-01-25T09:46:48;101754.44;;;2.81;76.77
35918;BME280;22011;59.912;30.300;2023-01-25T09:49:43;101744.09;;;2.92;76.89
35918;BME280;22011;59.912;30.300;2023-01-25T09:52:27;101747.88;;;2.88;77.35
35918;BME280;22011;59.912;30.300;2023-01-25T09:55:01;101742.13;;;2.82;77.05
35918;BME280;22011;59.912;30.300;2023-01-25T09:57:32;101739.41;;;2.83;76.48
35918;BME280;22011;59.912;30.300;2023-01-25T10:00:03;101738.63;;;2.81;76.42
35918;BME280;22011;59.912;30.300;2023-01-25T10:02:41;101727.25;;;2.81;76.61
35918;BME280;22011;59.912;30.300;2023-01-25T10:05:15;101708.75;;;2.82;76.85
35918;BME280;22011;59.912;30.300;2023-01-25T10:07:55;101708.09;;;2.93;77.33
35918;BME280;22011;59.912;30.300;2023-01-25T10:10:29;101705.19;;;2.83;76.85
35918;BME280;22011;59.912;30.300;2023-01-25T10:13:00;101707.41;;;2.75;77.17
35918;BME280;22011;59.912;30.300;2023-01-25T10:15:32;101694.66;;;2.83;77.03
35918;BME280;22011;59.912;30.300;2023-01-25T10:18:05;101690.91;;;2.87;77.20
35918;BME280;22011;59.912;30.300;2023-01-25T10:20:41;101689.47;;;2.82;77.28
35918;BME280;22011;59.912;30.300;2023-01-25T10:26:18;101681.88;;;2.91;77.28
35918;BME280;22011;59.912;30.300;2023-01-25T10:28:51;101680.28;;;2.89;77.18
35918;BME280;22011;59.912;30.300;2023-01-25T10:31:29;101685.25;;;2.93;77.32
35918;BME280;22011;59.912;30.300;2023-01-25T10:34:01;101673.69;;;2.96;76.92
35918;BME280;22011;59.912;30.300;2023-01-25T10:36:30;101665.72;;;2.98;76.69
35918;BME280;22011;59.912;30.300;2023-01-25T10:38:58;101668.53;;;2.94;76.96
35918;BME280;22011;59.912;30.300;2023-01-25T10:41:33;101672.38;;;2.89;77.38
35918;BME280;22011;59.912;30.300;2023-01-25T10:44:02;101670.97;;;2.83;77.42
35918;BME280;22011;59.912;30.300;2023-01-25T10:46:55;101659.97;;;2.91;77.91
35918;BME280;22011;59.912;30.300;2023-01-25T10:49:26;101647.84;;;2.88;77.91
35918;BME280;22011;59.912;30.300;2023-01-25T10:51:55;101641.06;;;2.84;77.96
35918;BME280;22011;59.912;30.300;2023-01-25T10:54:24;101640.69;;;2.90;77.67
35918;BME280;22011;59.912;30.300;2023-01-25T10:56:52;101640.88;;;2.87;77.72
35918;BME280;22011;59.912;30.300;2023-01-25T10:59:22;101643.22;;;2.92;78.00
35918;BME280;22011;59.912;30.300;2023-01-25T11:01:50;101645.88;;;2.92;77.66
35918;BME280;22011;59.912;30.300;2023-01-25T11:04:30;101645.00;;;3.06;77.64
35918;BME280;22011;59.912;30.300;2023-01-25T11:06:59;101640.03;;;3.01;77.47
35918;BME280;22011;59.912;30.300;2023-01-25T11:09:34;101626.03;;;3.01;78.15
35918;BME280;22011;59.912;30.300;2023-01-25T11:12:05;101632.59;;;2.93;78.35
35918;BME280;22011;59.912;30.300;2023-01-25T11:14:43;101627.81;;;3.00;77.95
35918;BME280;22011;59.912;30.300;2023-01-25T11:17:22;101627.88;;;3.13;78.50
35918;BME280;22011;59.912;30.300;2023-01-25T11:20:03;101628.88;;;3.24;78.83
35918;BME280;22011;59.912;30.300;2023-01-25T11:22:32;101624.25;;;3.01;78.09
35918;BME280;22011;59.912;30.300;2023-01-25T11:25:23;101620.63;;;3.16;78.74
35918;BME280;22011;59.912;30.300;2023-01-25T11:28:09;101619.25;;;3.11;78.32
35918;BME280;22011;59.912;30.300;2023-01-25T11:30:37;101605.13;;;3.12;78.03
35918;BME280;22011;59.912;30.300;2023-01-25T11:33:09;101605.06;;;3.26;77.87
35918;BME280;22011;59.912;30.300;2023-01-25T11:35:48;101603.09;;;3.29;77.78
35918;BME280;22011;59.912;30.300;2023-01-25T11:38:21;101599.81;;;3.26;77.82
35918;BME280;22011;59.912;30.300;2023-01-25T11:40:55;101602.91;;;3.33;78.37
35918;BME280;22011;59.912;30.300;2023-01-25T11:43:37;101602.06;;;3.32;78.35
35918;BME280;22011;59.912;30.300;2023-01-25T11:46:21;101593.09;;;3.35;78.14
35918;BME280;22011;59.912;30.300;2023-01-25T11:49:02;101591.53;;;3.32;78.29
35918;BME280;22011;59.912;30.300;2023-01-25T11:51:39;101594.69;;;3.37;78.06
35918;BME280;22011;59.912;30.300;2023-01-25T11:54:26;101586.09;;;3.48;77.93
35918;BME280;22011;59.912;30.300;2023-01-25T11:56:59;101592.53;;;3.44;77.84
35918;BME280;22011;59.912;30.300;2023-01-25T11:59:52;101585.63;;;3.55;78.22
35918;BME280;22011;59.912;30.300;2023-01-25T12:02:45;101574.31;;;3.53;78.08
35918;BME280;22011;59.912;30.300;2023-01-25T12:05:31;101571.50;;;3.56;78.19
35918;BME280;22011;59.912;30.300;2023-01-25T12:08:14;101570.66;;;3.56;77.46
35918;BME280;22011;59.912;30.300;2023-01-25T12:10:45;101569.53;;;3.73;78.06
35918;BME280;22011;59.912;30.300;2023-01-25T12:13:24;101571.84;;;3.65;77.38
35918;BME280;22011;59.912;30.300;2023-01-25T12:16:04;101568.94;;;3.82;77.69
35918;BME280;22011;59.912;30.300;2023-01-25T12:18:52;101562.56;;;3.72;77.34
35918;BME280;22011;59.912;30.300;2023-01-25T12:21:32;101559.81;;;3.60;77.39
35918;BME280;22011;59.912;30.300;2023-01-25T12:24:12;101550.16;;;3.74;77.72
35918;BME280;22011;59.912;30.300;2023-01-25T12:26:47;101549.47;;;3.57;76.85
35918;BME280;22011;59.912;30.300;2023-01-25T12:29:24;101544.94;;;3.59;77.36
35918;BME280;22011;59.912;30.300;2023-01-25T12:31:57;101535.44;;;3.57;77.32
35918;BME280;22011;59.912;30.300;2023-01-25T12:34:32;101527.25;;;3.61;77.59
35918;BME280;22011;59.912;30.300;2023-01-25T12:37:07;101528.50;;;3.56;77.76
35918;BME280;22011;59.912;30.300;2023-01-25T12:39:41;101521.53;;;3.55;77.47
35918;BME280;22011;59.912;30.300;2023-01-25T12:42:16;101520.91;;;3.64;77.70
35918;BME280;22011;59.912;30.300;2023-01-25T12:44:52;101523.56;;;3.64;77.43
35918;BME280;22011;59.912;30.300;2023-01-25T12:47:27;101513.41;;;3.58;77.28
35918;BME280;22011;59.912;30.300;2023-01-25T12:50:01;101515.50;;;3.53;77.88
35918;BME280;22011;59.912;30.300;2023-01-25T12:52:31;101504.53;;;3.46;77.86
35918;BME280;22011;59.912;30.300;2023-01-25T12:55:01;101506.97;;;3.49;77.81
35918;BME280;22011;59.912;30.300;2023-01-25T12:57:34;101511.09;;;3.53;77.99
35918;BME280;22011;59.912;30.300;2023-01-25T13:00:13;101514.47;;;3.55;77.83
35918;BME280;22011;59.912;30.300;2023-01-25T13:02:49;101510.59;;;3.74;78.22
35918;BME280;22011;59.912;30.300;2023-01-25T13:05:27;101525.94;;;3.54;78.21
35918;BME280;22011;59.912;30.300;2023-01-25T13:08:01;101512.25;;;3.49;78.18
35918;BME280;22011;59.912;30.300;2023-01-25T13:10:34;101507.19;;;3.46;78.16
35918;BME280;22011;59.912;30.300;2023-01-25T13:13:21;101509.00;;;3.58;78.00
35918;BME280;22011;59.912;30.300;2023-01-25T13:15:51;101516.13;;;3.44;77.58